createdAt,value
2019-05-25T00:07:33.097Z,10.60
2019-05-25T00:17:37.943Z,10.00
2019-05-25T00:27:43.583Z,10.03
2019-05-25T00:37:48.051Z,11.57
2019-05-25T00:47:52.506Z,11.13
2019-05-25T00:57:56.985Z,11.07
2019-05-25T01:08:01.543Z,11.23
2019-05-25T01:18:07.042Z,11.27
2019-05-25T01:28:11.621Z,12.77
2019-05-25T01:38:16.049Z,12.77
2019-05-25T01:48:20.642Z,12.40
2019-05-25T01:58:25.147Z,10.40
2019-05-25T02:08:29.598Z,12.63
2019-05-25T02:18:34.112Z,11.47
2019-05-25T02:28:38.712Z,9.73
2019-05-25T02:38:44.576Z,11.03
2019-05-25T02:48:49.099Z,11.20
2019-05-25T02:58:53.541Z,12.00
2019-05-25T03:08:58.263Z,11.43
2019-05-25T03:19:08.661Z,11.33
2019-05-25T03:29:13.105Z,12.43
2019-05-25T03:39:17.770Z,12.53
2019-05-25T03:49:22.359Z,12.47
2019-05-25T03:59:27.195Z,10.87
2019-05-25T04:09:32.606Z,11.33
2019-05-25T04:19:37.104Z,11.50
2019-05-25T04:29:41.591Z,10.40
2019-05-25T04:39:46.110Z,12.60
2019-05-25T04:49:50.692Z,10.00
2019-05-25T04:59:55.160Z,10.53
2019-05-25T05:10:02.728Z,12.23
2019-05-25T05:20:08.025Z,12.27
2019-05-25T05:30:13.022Z,10.87
2019-05-25T05:40:18.105Z,12.17
2019-05-25T05:50:22.665Z,12.28
2019-05-25T06:00:27.351Z,12.07
2019-05-25T06:10:31.851Z,11.53
2019-05-25T06:20:36.332Z,12.10
2019-05-25T06:30:40.951Z,12.27
2019-05-25T06:40:45.529Z,12.10
2019-05-25T06:50:50.136Z,11.65
2019-05-25T07:00:54.579Z,12.37
2019-05-25T07:10:59.271Z,13.30
2019-05-25T07:21:04.386Z,12.83
2019-05-25T07:31:09.063Z,11.97
2019-05-25T07:41:13.517Z,11.33
2019-05-25T07:51:18.285Z,12.60
2019-05-25T08:01:22.857Z,12.97
2019-05-25T08:11:28.460Z,12.53
2019-05-25T08:21:33.385Z,12.63
2019-05-25T08:31:37.942Z,12.90
2019-05-25T08:41:45.462Z,12.40
2019-05-25T08:51:48.885Z,12.53
2019-05-25T09:01:53.571Z,9.67
2019-05-25T09:11:58.109Z,9.37
2019-05-25T09:22:03.947Z,8.70
2019-05-25T09:32:08.637Z,9.40
2019-05-25T09:42:13.085Z,8.90
2019-05-25T09:52:17.522Z,9.43
2019-05-25T10:02:22.026Z,9.63
2019-05-25T10:12:26.498Z,9.83
2019-05-25T10:22:30.994Z,9.43
2019-05-25T10:32:36.500Z,9.43
2019-05-25T10:42:44.033Z,9.23
2019-05-25T10:52:51.536Z,9.47
2019-05-25T11:02:56.212Z,8.27
2019-05-25T11:13:00.733Z,7.17
2019-05-25T11:23:05.549Z,7.77
2019-05-25T11:33:10.036Z,6.80
2019-05-25T11:43:14.742Z,6.37
2019-05-25T11:53:19.258Z,6.60
2019-05-25T12:03:23.723Z,6.12
2019-05-25T12:13:31.918Z,6.30
2019-05-25T12:23:34.701Z,6.12
2019-05-25T12:33:39.222Z,5.65
2019-05-25T12:43:43.903Z,6.67
2019-05-25T12:53:48.463Z,7.42
2019-05-25T13:03:53.019Z,6.72
2019-05-25T13:13:57.564Z,5.87
2019-05-25T13:24:02.353Z,5.55
2019-05-25T13:34:06.932Z,5.00
2019-05-25T13:44:11.531Z,4.87
2019-05-25T13:54:16.083Z,4.70
2019-05-25T14:04:20.690Z,4.83
2019-05-25T14:14:25.156Z,4.40
2019-05-25T14:24:29.670Z,5.50
2019-05-25T14:34:34.110Z,5.55
2019-05-25T14:44:38.635Z,7.20
2019-05-25T14:54:44.053Z,5.28
2019-05-25T15:04:49.645Z,8.00
2019-05-25T15:14:54.051Z,6.20
2019-05-25T15:24:58.573Z,6.57
2019-05-25T15:35:03.469Z,6.67
2019-05-25T15:45:08.682Z,6.63
2019-05-25T15:55:14.312Z,6.60
2019-05-25T16:05:19.155Z,6.57
2019-05-25T16:15:28.064Z,6.33
2019-05-25T16:25:34.252Z,5.90
2019-05-25T16:35:39.130Z,6.53
2019-05-25T16:45:43.999Z,6.60
2019-05-25T16:55:48.671Z,6.63
2019-05-25T17:05:53.266Z,6.70
2019-05-25T17:15:57.824Z,5.70
2019-05-25T17:26:02.442Z,5.33
2019-05-25T17:36:07.122Z,5.27
2019-05-25T17:46:11.696Z,6.23
2019-05-25T17:56:16.215Z,5.33
2019-05-25T18:06:20.754Z,4.67
2019-05-25T18:16:25.441Z,7.37
2019-05-25T18:26:30.629Z,7.77
2019-05-25T18:36:35.310Z,8.13
2019-05-25T18:46:39.916Z,7.80
2019-05-25T18:56:45.558Z,8.10
2019-05-25T19:06:50.445Z,11.17
2019-05-25T19:16:54.880Z,10.40
2019-05-25T19:26:59.824Z,9.43
2019-05-25T19:37:04.662Z,10.53
2019-05-25T19:47:10.191Z,9.23
2019-05-25T19:57:14.989Z,10.40
2019-05-25T20:07:19.472Z,11.20
2019-05-25T20:17:24.158Z,13.70
2019-05-25T20:27:28.594Z,13.03
2019-05-25T20:37:33.101Z,11.63
2019-05-25T20:47:37.805Z,11.83
2019-05-25T20:57:42.315Z,6.90
2019-05-25T21:07:46.799Z,6.37
2019-05-25T21:17:51.381Z,6.08
2019-05-25T21:27:56.059Z,5.53
2019-05-25T21:38:00.642Z,6.50
2019-05-25T21:48:05.389Z,5.43
2019-05-25T21:58:09.826Z,6.40
2019-05-25T22:08:14.422Z,7.37
2019-05-25T22:18:19.112Z,6.97
2019-05-25T22:28:23.663Z,7.90
2019-05-25T22:38:28.180Z,7.10
2019-05-25T22:48:32.746Z,7.30
2019-05-25T22:58:37.200Z,7.23
2019-05-25T23:08:41.811Z,7.03
2019-05-25T23:18:47.835Z,5.60
2019-05-25T23:28:52.508Z,5.83
2019-05-25T23:38:57.021Z,6.73
2019-05-25T23:49:01.914Z,6.43
2019-05-25T23:59:06.431Z,5.90
